Time;durP1;ratioP1;P1;durP2;ratioP2;P2;SDS_P1;SDS_P2;PMS_P1;PMS_P2;Temp;Humidity;BMP_temperature;BMP_pressure;BME280_temperature;BME280_humidity;BME280_pressure;Samples;Min_cycle;Max_cycle;Signal;HPM_P1;HPM_P2
2022/11/14 00:01:13;;;;;;;1.83;0.60;;;;;;;;;;6263755;22;20376;-78
2022/11/14 00:03:57;;;;;;;0.98;0.60;;;;;;;;;;6263722;22;20031;-78
2022/11/14 00:06:41;;;;;;;1.33;0.80;;;;;;;;;;6264013;22;20078;-78
2022/11/14 00:09:25;;;;;;;0.70;0.60;;;;;;;;;;6264018;22;20023;-78
2022/11/14 00:12:09;;;;;;;1.73;0.60;;;;;;;;;;6263947;22;20069;-79
2022/11/14 00:14:54;;;;;;;2.40;0.75;;;;;;;;;;6263602;22;20027;-78
2022/11/14 00:17:38;;;;;;;1.48;0.55;;;;;;;;;;6263854;22;20042;-78
2022/11/14 00:20:22;;;;;;;0.80;0.60;;;;;;;;;;6263441;22;20120;-78
2022/11/14 00:23:06;;;;;;;0.77;0.60;;;;;;;;;;6243187;23;20026;-78
2022/11/14 00:25:50;;;;;;;1.05;0.60;;;;;;;;;;6263892;22;20023;-78
2022/11/14 00:28:34;;;;;;;0.65;0.50;;;;;;;;;;6241875;23;20452;-78
2022/11/14 00:31:18;;;;;;;0.88;0.60;;;;;;;;;;6264871;22;20019;-78
2022/11/14 00:34:02;;;;;;;1.05;0.50;;;;;;;;;;6245329;23;20023;-78
2022/11/14 00:36:46;;;;;;;1.35;0.50;;;;;;;;;;6266242;22;20027;-78
2022/11/14 00:39:30;;;;;;;1.02;0.60;;;;;;;;;;6265710;22;20070;-78
2022/11/14 00:42:14;;;;;;;0.63;0.60;;;;;;;;;;6266745;22;20026;-78
2022/11/14 00:44:58;;;;;;;0.80;0.60;;;;;;;;;;6266157;22;20039;-78
2022/11/14 00:47:42;;;;;;;1.20;0.50;;;;;;;;;;6265902;22;20022;-78
2022/11/14 00:50:25;;;;;;;0.43;0.43;;;;;;;;;;6245086;23;20487;-78
2022/11/14 00:53:09;;;;;;;0.52;0.50;;;;;;;;;;6245708;23;20074;-78
2022/11/14 00:55:53;;;;;;;2.00;0.50;;;;;;;;;;6265780;22;20518;-78
2022/11/14 00:58:37;;;;;;;0.80;0.60;;;;;;;;;;6244098;22;20139;-78
2022/11/14 01:01:21;;;;;;;0.80;0.60;;;;;;;;;;6245465;23;20027;-78
2022/11/14 01:04:05;;;;;;;0.40;0.40;;;;;;;;;;6266218;22;20047;-78
2022/11/14 01:06:49;;;;;;;1.08;0.50;;;;;;;;;;6265367;22;20019;-78
2022/11/14 01:09:33;;;;;;;0.98;0.50;;;;;;;;;;6265632;22;20023;-78
2022/11/14 01:12:17;;;;;;;0.40;0.40;;;;;;;;;;6244889;23;20050;-78
2022/11/14 01:15:00;;;;;;;1.75;0.80;;;;;;;;;;6244947;23;20027;-78
2022/11/14 01:17:44;;;;;;;0.50;0.50;;;;;;;;;;6265399;22;20454;-78
2022/11/14 01:20:28;;;;;;;0.40;0.40;;;;;;;;;;6243946;23;20069;-78
2022/11/14 01:23:13;;;;;;;0.73;0.50;;;;;;;;;;6265564;22;20027;-78
2022/11/14 01:26:00;;;;;;;0.70;0.50;;;;;;;;;;6245245;23;20023;-77
2022/11/14 01:28:45;;;;;;;0.50;0.50;;;;;;;;;;6243626;23;20515;-77
2022/11/14 01:31:29;;;;;;;0.77;0.50;;;;;;;;;;6265406;22;20871;-77
2022/11/14 01:34:13;;;;;;;0.40;0.40;;;;;;;;;;6265486;22;20030;-77
2022/11/14 01:36:57;;;;;;;2.03;0.45;;;;;;;;;;6265630;22;20534;-78
2022/11/14 01:39:41;;;;;;;0.57;0.50;;;;;;;;;;6265428;22;20023;-77
2022/11/14 01:42:25;;;;;;;0.50;0.50;;;;;;;;;;6244236;23;20023;-77
2022/11/14 01:45:27;;;;;;;0.40;0.40;;;;;;;;;;6265369;22;20142;-77
2022/11/14 01:48:17;;;;;;;0.68;0.50;;;;;;;;;;6244847;23;20019;-78
2022/11/14 01:51:17;;;;;;;0.40;0.40;;;;;;;;;;6265130;22;20054;-78
2022/11/14 01:54:02;;;;;;;0.55;0.40;;;;;;;;;;6244696;23;20027;-78
2022/11/14 01:56:47;;;;;;;0.47;0.47;;;;;;;;;;6265277;22;20023;-78
2022/11/14 01:59:35;;;;;;;0.40;0.40;;;;;;;;;;6265099;22;20365;-78
2022/11/14 02:02:20;;;;;;;0.40;0.40;;;;;;;;;;6265513;22;20027;-78
2022/11/14 02:05:10;;;;;;;0.47;0.45;;;;;;;;;;6264740;22;20023;-78
2022/11/14 02:07:54;;;;;;;0.50;0.45;;;;;;;;;;6265150;22;20351;-78
2022/11/14 02:10:38;;;;;;;0.70;0.50;;;;;;;;;;6265161;22;20050;-78
2022/11/14 02:13:22;;;;;;;0.50;0.40;;;;;;;;;;6264998;22;20027;-78
2022/11/14 02:16:06;;;;;;;0.45;0.40;;;;;;;;;;6264916;22;20412;-78
2022/11/14 02:18:50;;;;;;;0.28;0.28;;;;;;;;;;6264865;22;20363;-78
2022/11/14 02:21:34;;;;;;;0.60;0.40;;;;;;;;;;6264690;22;20359;-77
2022/11/14 02:24:18;;;;;;;0.32;0.32;;;;;;;;;;6244162;23;20055;-78
2022/11/14 02:27:03;;;;;;;0.40;0.40;;;;;;;;;;6265146;22;20533;-77
2022/11/14 02:29:47;;;;;;;0.57;0.47;;;;;;;;;;6264487;22;20020;-79
2022/11/14 02:32:31;;;;;;;0.32;0.32;;;;;;;;;;6265193;22;20023;-79
2022/11/14 02:35:14;;;;;;;1.30;0.50;;;;;;;;;;6265033;22;20073;-79
2022/11/14 02:37:58;;;;;;;0.60;0.45;;;;;;;;;;6265210;22;20018;-78
2022/11/14 02:40:42;;;;;;;0.45;0.40;;;;;;;;;;6264485;22;20062;-78
2022/11/14 02:43:26;;;;;;;0.73;0.60;;;;;;;;;;6264812;22;20479;-78
2022/11/14 02:46:10;;;;;;;1.65;0.98;;;;;;;;;;6264488;22;20046;-78
2022/11/14 02:48:54;;;;;;;0.77;0.47;;;;;;;;;;6264515;22;20023;-78
2022/11/14 02:51:40;;;;;;;1.45;0.50;;;;;;;;;;6244628;23;20023;-79
2022/11/14 02:54:23;;;;;;;1.05;0.60;;;;;;;;;;6243892;23;20027;-78
2022/11/14 02:57:07;;;;;;;1.33;0.60;;;;;;;;;;6264346;22;20054;-78
2022/11/14 02:59:51;;;;;;;1.10;0.63;;;;;;;;;;6264470;22;20038;-78
2022/11/14 03:02:35;;;;;;;1.27;0.60;;;;;;;;;;6244133;23;20023;-78
2022/11/14 03:05:19;;;;;;;0.93;0.70;;;;;;;;;;6264362;22;20352;-78
2022/11/14 03:08:03;;;;;;;0.55;0.50;;;;;;;;;;6243455;23;20493;-78
2022/11/14 03:10:47;;;;;;;0.63;0.50;;;;;;;;;;6264662;22;20027;-78
2022/11/14 03:13:31;;;;;;;0.70;0.50;;;;;;;;;;6264460;22;20074;-78
2022/11/14 03:16:15;;;;;;;0.80;0.52;;;;;;;;;;6243741;23;20023;-78
2022/11/14 03:18:59;;;;;;;1.23;0.68;;;;;;;;;;6243779;23;20062;-78
2022/11/14 03:21:43;;;;;;;0.80;0.60;;;;;;;;;;6244325;23;20027;-78
2022/11/14 03:24:27;;;;;;;0.90;0.55;;;;;;;;;;6264392;22;20344;-79
2022/11/14 03:27:11;;;;;;;0.68;0.60;;;;;;;;;;6243945;23;20022;-78
2022/11/14 03:29:55;;;;;;;1.30;0.98;;;;;;;;;;6264238;22;20019;-77
2022/11/14 03:32:39;;;;;;;0.90;0.60;;;;;;;;;;6264835;22;20533;-79
2022/11/14 03:35:23;;;;;;;0.70;0.50;;;;;;;;;;6243884;23;20023;-78
2022/11/14 03:38:07;;;;;;;1.52;0.65;;;;;;;;;;6244213;23;20050;-79
2022/11/14 03:40:51;;;;;;;1.60;0.95;;;;;;;;;;6265247;22;20034;-78
2022/11/14 03:43:35;;;;;;;0.80;0.68;;;;;;;;;;6264672;22;20077;-78
2022/11/14 03:46:19;;;;;;;0.90;0.50;;;;;;;;;;6244139;23;20038;-79
2022/11/14 03:49:02;;;;;;;0.95;0.70;;;;;;;;;;6264267;22;20113;-78
2022/11/14 03:51:47;;;;;;;0.52;0.50;;;;;;;;;;6243142;23;20098;-78
2022/11/14 03:54:31;;;;;;;0.90;0.70;;;;;;;;;;6264579;22;20150;-78
2022/11/14 03:57:15;;;;;;;1.00;0.57;;;;;;;;;;6244107;23;20023;-79
2022/11/14 03:59:59;;;;;;;1.60;0.60;;;;;;;;;;6264196;22;20046;-78
2022/11/14 04:02:43;;;;;;;0.90;0.60;;;;;;;;;;6242381;23;20023;-78
2022/11/14 04:05:27;;;;;;;1.15;0.60;;;;;;;;;;6263954;22;20022;-78
2022/11/14 04:08:11;;;;;;;0.77;0.60;;;;;;;;;;6264368;22;20022;-79
2022/11/14 04:10:55;;;;;;;1.60;0.98;;;;;;;;;;6264847;22;20066;-79
2022/11/14 04:13:39;;;;;;;3.33;1.13;;;;;;;;;;6243991;23;20125;-81
2022/11/14 04:16:23;;;;;;;2.65;0.80;;;;;;;;;;6264504;22;20467;-78
2022/11/14 04:19:06;;;;;;;1.02;0.60;;;;;;;;;;6244185;23;20578;-78
2022/11/14 04:21:50;;;;;;;1.52;0.90;;;;;;;;;;6264385;22;20027;-79
2022/11/14 04:24:34;;;;;;;1.15;0.80;;;;;;;;;;6243220;23;20031;-79
2022/11/14 04:27:18;;;;;;;0.93;0.75;;;;;;;;;;6242911;23;20022;-81
2022/11/14 04:30:04;;;;;;;0.98;0.68;;;;;;;;;;6242304;23;20066;-78
2022/11/14 04:32:48;;;;;;;2.08;0.80;;;;;;;;;;6264274;22;20026;-78
2022/11/14 04:35:32;;;;;;;0.93;0.60;;;;;;;;;;6264755;22;20027;-79
2022/11/14 04:38:22;;;;;;;1.00;0.90;;;;;;;;;;6262756;22;20018;-78
2022/11/14 04:41:06;;;;;;;1.50;0.90;;;;;;;;;;6243837;23;20042;-77
2022/11/14 04:43:50;;;;;;;0.85;0.68;;;;;;;;;;6243461;23;20355;-78
2022/11/14 04:46:34;;;;;;;1.27;0.80;;;;;;;;;;6265080;22;20102;-79
2022/11/14 04:49:18;;;;;;;0.57;0.50;;;;;;;;;;6244168;23;20390;-79
2022/11/14 04:52:02;;;;;;;0.60;0.35;;;;;;;;;;6243565;23;20070;-79
2022/11/14 04:54:46;;;;;;;0.68;0.60;;;;;;;;;;6244649;23;20027;-79
2022/11/14 04:57:30;;;;;;;1.80;0.73;;;;;;;;;;6265035;22;20027;-79
2022/11/14 05:00:14;;;;;;;2.03;0.80;;;;;;;;;;6265083;22;20372;-78
2022/11/14 05:02:58;;;;;;;1.25;0.80;;;;;;;;;;6264907;22;20065;-78
2022/11/14 05:05:42;;;;;;;3.60;1.02;;;;;;;;;;6243233;23;20023;-79
2022/11/14 05:08:26;;;;;;;2.88;1.65;;;;;;;;;;6242727;23;20020;-78
2022/11/14 05:11:14;;;;;;;3.33;1.02;;;;;;;;;;6242732;23;20487;-79
2022/11/14 05:13:58;;;;;;;1.70;0.90;;;;;;;;;;6242794;23;20026;-79
2022/11/14 05:16:42;;;;;;;0.80;0.50;;;;;;;;;;6264917;22;20023;-80
2022/11/14 05:19:26;;;;;;;4.28;1.00;;;;;;;;;;6266726;22;20049;-79
2022/11/14 05:22:16;;;;;;;2.72;1.00;;;;;;;;;;6246163;23;20062;-80
2022/11/14 05:25:00;;;;;;;4.25;1.00;;;;;;;;;;6265955;22;20086;-78
2022/11/14 05:27:44;;;;;;;1.33;0.70;;;;;;;;;;6266534;22;20019;-77
2022/11/14 05:30:28;;;;;;;2.75;0.88;;;;;;;;;;6244676;23;20023;-78
2022/11/14 05:33:12;;;;;;;4.60;0.82;;;;;;;;;;6266403;22;20072;-78
2022/11/14 05:36:00;;;;;;;4.20;0.80;;;;;;;;;;6246294;23;20035;-78
2022/11/14 05:38:44;;;;;;;2.05;0.60;;;;;;;;;;6266473;22;20027;-78
2022/11/14 05:41:28;;;;;;;3.15;0.80;;;;;;;;;;6245508;23;20078;-77
2022/11/14 05:44:12;;;;;;;4.93;0.65;;;;;;;;;;6265602;22;20070;-80
2022/11/14 05:46:56;;;;;;;2.03;0.70;;;;;;;;;;6265534;22;20019;-78
2022/11/14 05:49:40;;;;;;;2.45;0.70;;;;;;;;;;6243619;23;20023;-80
2022/11/14 05:52:23;;;;;;;3.20;0.80;;;;;;;;;;6265181;22;20019;-79
2022/11/14 05:55:08;;;;;;;5.70;1.00;;;;;;;;;;6243625;23;20083;-79
2022/11/14 05:57:52;;;;;;;6.25;1.42;;;;;;;;;;6264973;22;20023;-79
2022/11/14 06:00:36;;;;;;;7.93;1.80;;;;;;;;;;6243071;23;20039;-80
2022/11/14 06:03:19;;;;;;;8.93;2.00;;;;;;;;;;6243827;23;20066;-79
2022/11/14 06:06:04;;;;;;;4.95;1.00;;;;;;;;;;6244640;23;20088;-79
2022/11/14 06:08:48;;;;;;;6.07;1.00;;;;;;;;;;6265337;22;20050;-79
2022/11/14 06:11:32;;;;;;;6.75;1.08;;;;;;;;;;6265178;22;20073;-79
2022/11/14 06:14:16;;;;;;;5.65;1.05;;;;;;;;;;6265139;22;20026;-79
2022/11/14 06:17:00;;;;;;;6.55;1.05;;;;;;;;;;6243393;23;20023;-80
2022/11/14 06:19:44;;;;;;;6.00;1.25;;;;;;;;;;6244696;23;20042;-79
2022/11/14 06:22:28;;;;;;;11.85;1.40;;;;;;;;;;6244572;23;20074;-80
2022/11/14 06:25:12;;;;;;;3.85;1.10;;;;;;;;;;6264941;22;20026;-80
2022/11/14 06:27:57;;;;;;;6.35;1.25;;;;;;;;;;6265310;22;20098;-79
2022/11/14 06:30:41;;;;;;;6.47;1.13;;;;;;;;;;6264787;22;20038;-79
2022/11/14 06:33:26;;;;;;;7.13;1.38;;;;;;;;;;6243507;23;20063;-80
2022/11/14 06:36:10;;;;;;;4.47;1.20;;;;;;;;;;6244456;23;20074;-79
2022/11/14 06:38:54;;;;;;;5.05;0.95;;;;;;;;;;6264644;22;20479;-78
2022/11/14 06:41:38;;;;;;;5.57;1.10;;;;;;;;;;6264658;22;20042;-81
2022/11/14 06:44:22;;;;;;;5.05;1.10;;;;;;;;;;6244557;23;20023;-81
2022/11/14 06:47:06;;;;;;;6.30;1.33;;;;;;;;;;6265135;22;20023;-77
2022/11/14 06:49:50;;;;;;;8.68;1.67;;;;;;;;;;6244082;23;20023;-80
2022/11/14 06:52:34;;;;;;;9.30;1.60;;;;;;;;;;6243413;23;20421;-79
2022/11/14 06:55:18;;;;;;;7.05;1.45;;;;;;;;;;6264935;22;20022;-80
2022/11/14 06:58:02;;;;;;;8.82;1.40;;;;;;;;;;6265434;22;20054;-79
2022/11/14 07:00:46;;;;;;;7.15;1.58;;;;;;;;;;6264690;22;20035;-80
2022/11/14 07:03:30;;;;;;;5.75;1.33;;;;;;;;;;6264212;22;20479;-80
2022/11/14 07:06:15;;;;;;;5.53;1.40;;;;;;;;;;6265085;22;20019;-80
2022/11/14 07:08:59;;;;;;;6.25;1.50;;;;;;;;;;6264825;22;20061;-79
2022/11/14 07:11:45;;;;;;;10.25;1.70;;;;;;;;;;6264641;22;20019;-79
2022/11/14 07:14:29;;;;;;;5.13;1.40;;;;;;;;;;6244622;23;20023;-80
2022/11/14 07:17:13;;;;;;;5.75;1.70;;;;;;;;;;6242812;23;20031;-80
2022/11/14 07:19:57;;;;;;;5.55;1.60;;;;;;;;;;6244309;23;20082;-79
2022/11/14 07:22:41;;;;;;;5.35;1.50;;;;;;;;;;6244452;23;20108;-80
2022/11/14 07:25:25;;;;;;;11.02;2.35;;;;;;;;;;6244858;23;20023;-79
2022/11/14 07:28:09;;;;;;;7.88;1.52;;;;;;;;;;6244594;23;20023;-80
2022/11/14 07:30:52;;;;;;;4.25;1.40;;;;;;;;;;6264510;22;20347;-79
2022/11/14 07:33:36;;;;;;;6.55;1.30;;;;;;;;;;6264969;22;20070;-79
2022/11/14 07:36:20;;;;;;;3.33;1.13;;;;;;;;;;6264338;22;20027;-79
2022/11/14 07:39:04;;;;;;;13.88;1.48;;;;;;;;;;6264912;22;20058;-80
2022/11/14 07:41:48;;;;;;;3.42;1.20;;;;;;;;;;6264097;22;20026;-78
2022/11/14 07:44:32;;;;;;;7.55;2.13;;;;;;;;;;6264408;22;20026;-79
2022/11/14 07:47:16;;;;;;;5.13;1.35;;;;;;;;;;6244098;23;20018;-78
2022/11/14 07:50:00;;;;;;;6.03;1.25;;;;;;;;;;6264251;22;20022;-79
2022/11/14 07:52:49;;;;;;;6.40;1.92;;;;;;;;;;6242811;23;20093;-79
2022/11/14 07:55:36;;;;;;;7.28;1.52;;;;;;;;;;6242834;23;20019;-80
2022/11/14 07:58:20;;;;;;;4.82;1.33;;;;;;;;;;6243167;22;20035;-80
2022/11/14 08:01:05;;;;;;;5.13;1.67;;;;;;;;;;6243191;23;20084;-81
2022/11/14 08:03:49;;;;;;;4.22;1.30;;;;;;;;;;6264632;22;20027;-80
2022/11/14 08:06:33;;;;;;;7.90;2.25;;;;;;;;;;6264800;22;20066;-78
2022/11/14 08:09:17;;;;;;;4.53;1.27;;;;;;;;;;6243671;23;20023;-80
2022/11/14 08:12:01;;;;;;;2.60;0.85;;;;;;;;;;6243656;23;20494;-79
2022/11/14 08:14:45;;;;;;;4.45;1.05;;;;;;;;;;6264421;22;20043;-80
2022/11/14 08:17:29;;;;;;;6.78;1.30;;;;;;;;;;6264580;22;20409;-79
2022/11/14 08:20:13;;;;;;;3.72;1.20;;;;;;;;;;6243955;23;20411;-80
2022/11/14 08:23:01;;;;;;;6.95;1.40;;;;;;;;;;6243575;23;20067;-79
2022/11/14 08:25:45;;;;;;;4.53;1.15;;;;;;;;;;6264437;22;20105;-79
2022/11/14 08:28:29;;;;;;;6.13;1.40;;;;;;;;;;6244370;23;20407;-80
2022/11/14 08:31:13;;;;;;;4.72;1.30;;;;;;;;;;6244131;23;20475;-80
2022/11/14 08:33:57;;;;;;;6.15;1.10;;;;;;;;;;6244570;23;20027;-79
2022/11/14 08:36:41;;;;;;;4.07;1.50;;;;;;;;;;6244838;23;20468;-78
2022/11/14 08:39:25;;;;;;;3.90;1.15;;;;;;;;;;6243008;23;20093;-79
2022/11/14 08:42:09;;;;;;;10.85;1.95;;;;;;;;;;6244001;23;20027;-80
2022/11/14 08:44:53;;;;;;;4.28;1.40;;;;;;;;;;6264227;22;20023;-81
2022/11/14 08:47:37;;;;;;;5.78;1.27;;;;;;;;;;6264269;22;20023;-80
2022/11/14 08:50:21;;;;;;;6.13;1.20;;;;;;;;;;6263983;22;20099;-80
2022/11/14 08:53:05;;;;;;;7.72;1.25;;;;;;;;;;6265567;22;20026;-80
2022/11/14 08:55:49;;;;;;;4.72;1.20;;;;;;;;;;6245886;23;20069;-80
2022/11/14 08:58:33;;;;;;;4.82;1.80;;;;;;;;;;6245367;22;20031;-80
2022/11/14 09:01:17;;;;;;;3.70;1.27;;;;;;;;;;6246213;23;20051;-80
2022/11/14 09:04:01;;;;;;;3.97;1.17;;;;;;;;;;6246315;23;20069;-79
2022/11/14 09:06:45;;;;;;;6.88;1.42;;;;;;;;;;6245892;23;20533;-79
2022/11/14 09:09:29;;;;;;;6.78;1.27;;;;;;;;;;6245963;23;20062;-79
2022/11/14 09:12:13;;;;;;;8.32;1.23;;;;;;;;;;6266026;22;20158;-79
2022/11/14 09:14:57;;;;;;;5.30;1.10;;;;;;;;;;6266122;22;20031;-79
2022/11/14 09:17:41;;;;;;;6.13;1.17;;;;;;;;;;6246512;23;20084;-80
2022/11/14 09:20:25;;;;;;;7.07;1.50;;;;;;;;;;6266601;22;20363;-80
2022/11/14 09:23:09;;;;;;;3.72;1.50;;;;;;;;;;6265471;22;20027;-80
2022/11/14 09:25:53;;;;;;;7.78;1.27;;;;;;;;;;6266383;22;20038;-80
2022/11/14 09:28:37;;;;;;;4.40;1.40;;;;;;;;;;6245897;23;20054;-79
2022/11/14 09:31:21;;;;;;;11.32;2.00;;;;;;;;;;6245417;23;20410;-80
2022/11/14 09:34:05;;;;;;;6.55;1.27;;;;;;;;;;6266222;22;20023;-80
2022/11/14 09:36:49;;;;;;;5.20;1.00;;;;;;;;;;6245399;23;20034;-79
2022/11/14 09:39:36;;;;;;;7.70;1.80;;;;;;;;;;6266059;22;20027;-81
2022/11/14 09:42:20;;;;;;;5.95;1.40;;;;;;;;;;6245623;23;20073;-81
2022/11/14 09:45:08;;;;;;;6.38;1.27;;;;;;;;;;6245751;23;20023;-81
2022/11/14 09:48:02;;;;;;;5.07;1.48;;;;;;;;;;6266022;22;20074;-80
2022/11/14 09:50:57;;;;;;;4.22;1.10;;;;;;;;;;6244454;23;20474;-81
2022/11/14 09:54:00;;;;;;;5.20;1.55;;;;;;;;;;6265812;22;20354;-81
2022/11/14 09:56:44;;;;;;;4.90;1.20;;;;;;;;;;6245202;23;20039;-79
2022/11/14 09:59:28;;;;;;;6.55;1.25;;;;;;;;;;6265980;22;20525;-80
2022/11/14 10:02:31;;;;;;;6.28;1.70;;;;;;;;;;6244249;23;20077;-80
2022/11/14 10:05:22;;;;;;;11.10;3.15;;;;;;;;;;6245668;23;20372;-79
2022/11/14 10:08:25;;;;;;;5.60;1.60;;;;;;;;;;6265519;22;20022;-80
2022/11/14 10:11:12;;;;;;;7.47;1.17;;;;;;;;;;6246136;23;20122;-81
2022/11/14 10:14:14;;;;;;;7.25;1.50;;;;;;;;;;6244455;23;20089;-81
2022/11/14 10:17:01;;;;;;;5.93;1.30;;;;;;;;;;6244524;23;20074;-81
2022/11/14 10:19:46;;;;;;;;;;;;;;;;;;6246445;23;20058;-81
2022/11/14 10:22:33;;;;;;;9.25;1.67;;;;;;;;;;6244547;23;19938;-82
2022/11/14 10:25:17;;;;;;;;;;;;;;;;;;6246479;23;20086;-81
2022/11/14 10:28:13;;;;;;;6.50;1.70;;;;;;;;;;6244769;23;19983;-82
2022/11/14 10:30:57;;;;;;;4.57;0.90;;;;;;;;;;6266284;22;20510;-80
2022/11/14 10:34:00;;;;;;;5.25;1.30;;;;;;;;;;6246037;23;20078;-81
2022/11/14 10:36:46;;;;;;;4.68;1.70;;;;;;;;;;6245650;23;20069;-82
2022/11/14 10:39:33;;;;;;;4.53;1.40;;;;;;;;;;6266146;22;20117;-82
2022/11/14 10:42:17;;;;;;;;;;;;;;;;;;6266492;22;20047;-81
2022/11/14 10:45:15;;;;;;;4.50;1.38;;;;;;;;;;6245915;23;19919;-82
2022/11/14 10:48:01;;;;;;;3.45;1.05;;;;;;;;;;6266129;22;20023;-80
2022/11/14 10:50:48;;;;;;;8.93;1.55;;;;;;;;;;6266377;22;20038;-81
2022/11/14 10:53:44;;;;;;;8.55;1.52;;;;;;;;;;6265847;22;20081;-82
2022/11/14 10:56:28;;;;;;;6.15;1.30;;;;;;;;;;6266083;22;20486;-81
2022/11/14 10:59:12;;;;;;;3.78;1.10;;;;;;;;;;6266167;22;20039;-81
2022/11/14 11:01:57;;;;;;;6.93;1.33;;;;;;;;;;6265733;22;20082;-81
2022/11/14 11:04:41;;;;;;;3.95;1.55;;;;;;;;;;6265972;22;20066;-82
2022/11/14 11:13:54;;;;;;;4.30;1.10;;;;;;;;;;6196349;23;20059;-81
2022/11/14 11:16:38;;;;;;;6.32;1.52;;;;;;;;;;6243495;23;20042;-82
2022/11/14 11:19:22;;;;;;;6.95;1.58;;;;;;;;;;6265934;22;20035;-81
2022/11/14 11:22:27;;;;;;;4.88;1.25;;;;;;;;;;6245264;23;20076;-80
2022/11/14 11:25:27;;;;;;;5.80;1.25;;;;;;;;;;6243855;23;20074;-82
2022/11/14 11:28:12;;;;;;;7.63;1.67;;;;;;;;;;6265428;22;20435;-81
2022/11/14 11:31:00;;;;;;;7.25;1.80;;;;;;;;;;6243539;23;20019;-81
2022/11/14 11:33:44;;;;;;;5.82;1.38;;;;;;;;;;6265396;22;20023;-81
2022/11/14 11:36:28;;;;;;;7.03;1.42;;;;;;;;;;6264897;22;20085;-81
2022/11/14 11:39:16;;;;;;;9.30;2.30;;;;;;;;;;6243609;23;20351;-81
2022/11/14 11:42:01;;;;;;;7.22;1.40;;;;;;;;;;6265529;22;20483;-81
2022/11/14 11:44:46;;;;;;;6.43;1.50;;;;;;;;;;6265643;22;20051;-80
2022/11/14 11:47:31;;;;;;;5.90;1.35;;;;;;;;;;6245183;23;20402;-81
2022/11/14 11:50:17;;;;;;;7.47;2.05;;;;;;;;;;6265397;22;20511;-82
2022/11/14 11:53:24;;;;;;;4.55;1.95;;;;;;;;;;6265094;22;20431;-82
2022/11/14 11:56:13;;;;;;;11.27;2.38;;;;;;;;;;6243262;23;20014;-82
2022/11/14 11:59:16;;;;;;;6.03;1.67;;;;;;;;;;6265011;22;20035;-82
2022/11/14 12:02:01;;;;;;;5.88;1.35;;;;;;;;;;6244764;23;20023;-82
2022/11/14 12:04:45;;;;;;;5.65;1.50;;;;;;;;;;6265470;22;20027;-82
2022/11/14 12:07:35;;;;;;;6.07;1.38;;;;;;;;;;6265529;22;20470;-82
2022/11/14 12:10:21;;;;;;;7.65;1.77;;;;;;;;;;6265100;22;20486;-83
2022/11/14 12:13:20;;;;;;;10.38;1.80;;;;;;;;;;6265026;22;20683;-81
2022/11/14 12:16:14;;;;;;;6.30;1.30;;;;;;;;;;6265571;22;20022;-82
2022/11/14 12:19:01;;;;;;;5.95;1.50;;;;;;;;;;6265158;22;20090;-81
2022/11/14 12:22:04;;;;;;;5.95;1.48;;;;;;;;;;6243435;23;20115;-81
2022/11/14 12:24:48;;;;;;;5.22;1.60;;;;;;;;;;6244116;23;20026;-81
2022/11/14 12:27:50;;;;;;;6.40;1.40;;;;;;;;;;6243916;23;20023;-81
2022/11/14 12:30:34;;;;;;;8.43;1.80;;;;;;;;;;6244162;23;20055;-81
2022/11/14 12:33:23;;;;;;;5.65;1.55;;;;;;;;;;6264333;22;20111;-81
2022/11/14 12:36:08;;;;;;;10.88;1.73;;;;;;;;;;6264704;22;20054;-80
2022/11/14 12:38:52;;;;;;;7.22;1.30;;;;;;;;;;6242564;23;20027;-80
2022/11/14 12:41:37;;;;;;;7.90;1.30;;;;;;;;;;6264294;22;20022;-80
2022/11/14 12:44:27;;;;;;;7.65;1.75;;;;;;;;;;6263938;22;20066;-81
2022/11/14 12:47:12;;;;;;;6.57;1.30;;;;;;;;;;6242112;23;20114;-80
2022/11/14 12:49:57;;;;;;;5.45;1.63;;;;;;;;;;6242712;23;20023;-80
2022/11/14 12:52:44;;;;;;;6.85;2.05;;;;;;;;;;6263685;22;20475;-80
2022/11/14 12:55:28;;;;;;;6.68;1.30;;;;;;;;;;6244010;23;20077;-81
2022/11/14 12:58:30;;;;;;;6.97;1.23;;;;;;;;;;6244084;22;20027;-80
2022/11/14 13:01:14;;;;;;;6.32;1.77;;;;;;;;;;6243543;23;20047;-80
2022/11/14 13:04:01;;;;;;;3.00;1.30;;;;;;;;;;6243423;23;20093;-81
2022/11/14 13:06:51;;;;;;;6.80;2.08;;;;;;;;;;6242497;23;20470;-82
2022/11/14 13:09:54;;;;;;;8.75;1.75;;;;;;;;;;6243720;23;20074;-81
2022/11/14 13:22:09;;;;;;;10.55;1.75;;;;;;;;;;6243508;23;20046;-80
2022/11/14 13:25:02;;;;;;;9.38;1.90;;;;;;;;;;6242329;23;20107;-81
2022/11/14 13:27:46;;;;;;;8.52;1.98;;;;;;;;;;6243343;23;20023;-79
2022/11/14 13:30:50;;;;;;;8.23;1.83;;;;;;;;;;6263867;22;20019;-81
2022/11/14 13:33:57;;;;;;;7.43;2.10;;;;;;;;;;6242837;23;20042;-81
2022/11/14 13:36:41;;;;;;;4.43;1.45;;;;;;;;;;6243577;23;20066;-80
2022/11/14 13:39:27;;;;;;;8.32;2.60;;;;;;;;;;6243324;23;20070;-80
2022/11/14 13:42:14;;;;;;;11.82;2.85;;;;;;;;;;6243722;23;20396;-80
2022/11/14 13:44:58;;;;;;;7.93;2.30;;;;;;;;;;6245294;23;20026;-80
2022/11/14 13:47:51;;;;;;;9.70;3.17;;;;;;;;;;6243765;23;20023;-80
2022/11/14 13:50:39;;;;;;;9.75;3.15;;;;;;;;;;6245095;23;20019;-80
2022/11/14 13:53:24;;;;;;;10.95;2.75;;;;;;;;;;6243819;23;20105;-82
2022/11/14 13:56:26;;;;;;;8.82;2.42;;;;;;;;;;6263954;22;20023;-81
2022/11/14 13:59:31;;;;;;;7.95;2.40;;;;;;;;;;6244686;22;20470;-79
2022/11/14 14:02:20;;;;;;;7.88;2.45;;;;;;;;;;6244777;23;20115;-79
2022/11/14 14:05:09;;;;;;;16.05;3.10;;;;;;;;;;6242603;23;20047;-79
2022/11/14 14:08:02;;;;;;;11.90;2.83;;;;;;;;;;6244691;23;20015;-80
2022/11/14 14:11:08;;;;;;;6.55;2.42;;;;;;;;;;6264410;22;20078;-79
2022/11/14 14:14:11;;;;;;;9.95;2.53;;;;;;;;;;6265042;22;20027;-79
2022/11/14 14:17:01;;;;;;;8.55;2.65;;;;;;;;;;6245093;23;20409;-82
2022/11/14 14:19:50;;;;;;;9.80;2.70;;;;;;;;;;6264714;22;20027;-79
2022/11/14 14:22:55;;;;;;;7.05;2.10;;;;;;;;;;6243003;23;20107;-80
2022/11/14 14:25:57;;;;;;;12.07;2.80;;;;;;;;;;6244201;23;20026;-80
2022/11/14 14:28:45;;;;;;;10.98;2.60;;;;;;;;;;6243953;23;20360;-81
2022/11/14 14:31:35;;;;;;;14.32;3.35;;;;;;;;;;6264534;22;20474;-79
2022/11/14 14:34:20;;;;;;;12.57;2.75;;;;;;;;;;6264734;22;20360;-80
2022/11/14 14:37:12;;;;;;;10.48;3.22;;;;;;;;;;6244698;23;20074;-79
2022/11/14 14:39:57;;;;;;;15.52;3.13;;;;;;;;;;6264996;22;20019;-80
2022/11/14 14:42:44;;;;;;;10.77;2.67;;;;;;;;;;6264940;22;20022;-79
2022/11/14 14:45:28;;;;;;;10.13;2.50;;;;;;;;;;6264605;22;20356;-80
2022/11/14 14:48:21;;;;;;;13.98;3.40;;;;;;;;;;6264770;22;20486;-80
2022/11/14 14:51:06;;;;;;;11.48;2.92;;;;;;;;;;6264016;22;20023;-79
2022/11/14 14:53:51;;;;;;;12.68;2.90;;;;;;;;;;6244473;23;20027;-80
2022/11/14 14:56:35;;;;;;;10.25;2.80;;;;;;;;;;6242715;23;20043;-80
2022/11/14 14:59:23;;;;;;;12.70;2.58;;;;;;;;;;6243973;22;20042;-79
2022/11/14 15:02:16;;;;;;;11.95;3.72;;;;;;;;;;6264366;22;20085;-80
2022/11/14 15:05:00;;;;;;;11.63;2.75;;;;;;;;;;6264133;22;20162;-80
2022/11/14 15:07:45;;;;;;;15.25;2.97;;;;;;;;;;6264486;22;20150;-80
2022/11/14 15:10:29;;;;;;;8.02;3.13;;;;;;;;;;6244169;23;20023;-79
2022/11/14 15:13:14;;;;;;;13.95;3.45;;;;;;;;;;6264604;22;20071;-79
2022/11/14 15:16:01;;;;;;;12.95;3.05;;;;;;;;;;6244120;23;20066;-80
2022/11/14 15:18:45;;;;;;;11.43;2.90;;;;;;;;;;6244432;23;20111;-80
2022/11/14 15:21:29;;;;;;;13.52;2.92;;;;;;;;;;6265766;22;20027;-79
2022/11/14 15:24:15;;;;;;;11.88;2.92;;;;;;;;;;6265122;22;20363;-80
2022/11/14 15:27:01;;;;;;;12.27;3.00;;;;;;;;;;6265401;22;20069;-81
2022/11/14 15:29:46;;;;;;;9.00;3.10;;;;;;;;;;6264328;22;20519;-80
2022/11/14 15:32:30;;;;;;;13.77;3.45;;;;;;;;;;6244319;23;20435;-80
2022/11/14 15:35:17;;;;;;;9.48;2.83;;;;;;;;;;6243870;23;20348;-79
2022/11/14 15:38:24;;;;;;;12.50;3.40;;;;;;;;;;6244174;23;20087;-80
2022/11/14 15:41:18;;;;;;;9.73;3.10;;;;;;;;;;6241742;23;20073;-80
2022/11/14 15:44:04;;;;;;;14.25;3.67;;;;;;;;;;6243362;23;20525;-80
2022/11/14 15:46:48;;;;;;;19.00;3.50;;;;;;;;;;6244222;23;20041;-81
2022/11/14 15:49:32;;;;;;;11.70;4.05;;;;;;;;;;6264161;22;20023;-80
2022/11/14 15:52:26;;;;;;;12.48;3.25;;;;;;;;;;6264178;22;20359;-80
2022/11/14 15:55:19;;;;;;;11.65;3.90;;;;;;;;;;6242752;23;20026;-81
2022/11/14 15:58:06;;;;;;;11.20;3.28;;;;;;;;;;6264765;22;20067;-81
2022/11/14 16:00:50;;;;;;;;;;;;;;;;;;6241793;23;20078;-79
2022/11/14 16:03:34;;;;;;;8.93;3.28;;;;;;;;;;6243961;23;19922;-80
2022/11/14 16:06:18;;;;;;;16.20;2.92;;;;;;;;;;6220954;23;20073;-79
2022/11/14 16:09:02;;;;;;;13.30;3.45;;;;;;;;;;6242951;23;20142;-80
2022/11/14 16:11:47;;;;;;;12.15;3.35;;;;;;;;;;6243652;23;20587;-80
2022/11/14 16:14:31;;;;;;;12.48;3.50;;;;;;;;;;6242899;23;20019;-80
2022/11/14 16:17:15;;;;;;;12.80;3.65;;;;;;;;;;6242372;23;20502;-80
2022/11/14 16:19:59;;;;;;;10.75;3.33;;;;;;;;;;6242286;23;20142;-80
2022/11/14 16:22:43;;;;;;;11.75;3.13;;;;;;;;;;6242812;23;20023;-80
2022/11/14 16:25:28;;;;;;;15.10;3.90;;;;;;;;;;6241891;23;20078;-82
2022/11/14 16:28:12;;;;;;;11.05;3.40;;;;;;;;;;6242432;23;20074;-80
2022/11/14 16:30:56;;;;;;;12.88;2.78;;;;;;;;;;6242040;23;20043;-80
2022/11/14 16:33:40;;;;;;;8.43;2.80;;;;;;;;;;6243866;23;20027;-79
2022/11/14 16:36:24;;;;;;;14.23;2.85;;;;;;;;;;6242190;23;20024;-80
2022/11/14 16:39:12;;;;;;;9.02;3.10;;;;;;;;;;6241904;23;20074;-80
2022/11/14 16:42:00;;;;;;;16.10;3.00;;;;;;;;;;6243628;23;20023;-79
2022/11/14 16:44:44;;;;;;;13.35;3.10;;;;;;;;;;6243680;23;20111;-80
2022/11/14 16:47:30;;;;;;;12.10;3.60;;;;;;;;;;6243265;23;20162;-80
2022/11/14 16:50:15;;;;;;;22.95;5.75;;;;;;;;;;6243546;23;20027;-80
2022/11/14 16:52:59;;;;;;;15.70;4.95;;;;;;;;;;6243679;23;20043;-80